...

 METAR AND TAF INFORMATION
METAR FOR LBWN
ADDS - METARS form results

(2251 UTC 09 May 2021)
Data provider http://aviationweather.gov/metar/data/
 
METAR text: LBWN 092230Z 03003KT CAVOK 07/05 Q1026 NOSIG
Conditions at: LBWN (VARNA , BG) observed 2230 UTC 09 May 2021
Temperature: 7.0°C (45°F)
Dewpoint: 5.0°C (41°F) [RH = 87%]
Pressure (altimeter): 30.30 inches Hg (1026.0 mb)
Winds: from the NNE (30 degrees) at 3 MPH (3 knots; 1.5 m/s)
Visibility: 6 or more miles (10+ km)
Ceiling: ceiling and visibility are OK
Clouds: unknown
Weather: no significant weather observed at this time

METAR text: LBWN 092200Z 04003KT CAVOK 08/06 Q1026 NOSIG
Conditions at: LBWN (VARNA , BG) observed 2200 UTC 09 May 2021
Temperature: 8.0°C (46°F)
Dewpoint: 6.0°C (43°F) [RH = 87%]
Pressure (altimeter): 30.30 inches Hg (1026.0 mb)
Winds: from the NE (40 degrees) at 3 MPH (3 knots; 1.5 m/s)
Visibility: 6 or more miles (10+ km)
Ceiling: ceiling and visibility are OK
Clouds: unknown
Weather: no significant weather observed at this time

Forecast for: LBWN (VARNA , BG)
Text: TAF LBWN 091700Z 0918/1018 12010KT CAVOK
Forecast period: 1800 to 1900 UTC 09 May 2021
Forecast type: FROM: standard forecast or significant change
Winds: from the ESE (120 degrees) at 12 MPH (10 knots; 5.1 m/s)
Visibility: 6 or more miles (10+ km)
Ceiling: unknown
Clouds: missing
Weather: NSW  (no significant weather)
Text: BECMG 0919/0921 VRB04KT
Forecast period: 1900 UTC 09 May 2021 to 0800 UTC 10 May 2021
Forecast type: BECOMING: Conditions expected to become as follows by 2100 UTC 09 May 2021
Winds: variable direction winds at 5 MPH (4 knots; 2.1 m/s)
Visibility: 6 or more miles (10+ km)
Ceiling: unknown
Clouds: missing
Weather: NSW  (no significant weather)
Text: BECMG 1008/1010 12012KT
Forecast period: 0800 to 1800 UTC 10 May 2021
Forecast type: BECOMING: Conditions expected to become as follows by 1000 UTC 10 May 2021
Winds: from the ESE (120 degrees) at 14 MPH (12 knots; 6.2 m/s)
Visibility: 6 or more miles (10+ km)
Ceiling: unknown
Clouds: missing
Weather: NSW  (no significant weather)

 AIRPORT MAP

 RUNWAY INFORMATION
Runway 09 Runway length 8202 ft Runway width 180 ft
Runway elevation 203 ft Runway displaced threshold 0 ft Runway heading 97
Runway 27 Runway length 8202 ft Runway width 180 ft
Runway elevation 217 ft Runway displaced threshold 0 ft Runway heading 277

 AIRPORT FREQUENCIES
Type APP Name APP Frequency 121 MHZ
Type ATIS Name ATIS Frequency 118.075 MHZ
Type TWR Name TWR Frequency 119.5 MHZ

 AIRPORT NEAR NAVIGATION AIDS
Type NDB Name Devnya Frequency 350 KHZ
Type NDB Name Varna Frequency 375 KHZ
Type NDB Name Varna Frequency 335 KHZ
Type NDB Name Varna Frequency 397 KHZ
Type NDB Name Varna Frequency 526 KHZ
Type VOR-DME Name Varna Frequency 112400 KHZ